Terminal Aerodrome Forecast
Issued by NWS Duluth, MN

Home | Current Version | Previous Version | Text Only | Print | Product List | Glossary On
Versions: 1 2 3 4 5 6 7 8 9 10 11 12 13 14 15 16 17 18 19 20 21 22 23 24 25 26 27 28
256
FTUS43 KDLH 261140
TAFDLH
TAF
KDLH 261140Z 2612/2712 32007KT P6SM SCT120
     FM261600 32012G17KT P6SM VCSH BKN060
     FM270100 30009KT P6SM SCT070
     FM270400 28003KT P6SM SKC=

USA.gov is the U.S. government's official web portal to all federal, state and local government web resources and services.